createdAt,value
2017-12-08T00:00:19.634Z,63.79
2017-12-08T00:02:47.146Z,64.33
2017-12-08T00:05:14.705Z,65.03
2017-12-08T00:07:42.406Z,65.01
2017-12-08T00:10:10.188Z,65.20
2017-12-08T00:12:37.805Z,65.29
2017-12-08T00:15:05.309Z,65.35
2017-12-08T00:17:32.815Z,65.30
2017-12-08T00:20:00.571Z,65.31
2017-12-08T00:22:28.135Z,64.56
2017-12-08T00:24:55.677Z,65.74
2017-12-08T00:27:23.434Z,65.67
2017-12-08T00:29:52.353Z,66.01
2017-12-08T00:32:20.006Z,65.53
2017-12-08T00:34:47.565Z,66.44
2017-12-08T00:37:15.074Z,66.22
2017-12-08T00:39:42.615Z,66.61
2017-12-08T00:42:10.583Z,65.81
2017-12-08T00:44:39.046Z,65.55
2017-12-08T00:47:06.695Z,66.39
2017-12-08T00:49:35.187Z,66.22
2017-12-08T00:52:03.050Z,66.23
2017-12-08T00:54:30.600Z,66.27
2017-12-08T00:56:58.157Z,67.26
2017-12-08T00:59:25.663Z,67.45
2017-12-08T01:01:53.173Z,66.09
2017-12-08T01:04:20.938Z,65.80
2017-12-08T01:06:48.442Z,65.60
2017-12-08T01:09:15.958Z,65.88
2017-12-08T01:11:43.717Z,65.46
2017-12-08T01:14:11.277Z,65.17
2017-12-08T01:16:38.778Z,65.79
2017-12-08T01:19:06.704Z,64.38
2017-12-08T01:21:34.219Z,65.05
2017-12-08T01:24:01.723Z,65.31
2017-12-08T01:26:29.294Z,64.23
2017-12-08T01:28:56.801Z,64.05
2017-12-08T01:31:24.582Z,64.51
2017-12-08T01:33:52.289Z,63.79
2017-12-08T01:36:19.801Z,64.03
2017-12-08T01:38:47.308Z,63.65
2017-12-08T01:41:15.143Z,63.46
2017-12-08T01:43:42.646Z,63.63
2017-12-08T01:46:10.158Z,62.96
2017-12-08T01:48:37.919Z,63.23
2017-12-08T01:51:05.483Z,63.54
2017-12-08T01:53:32.990Z,63.70
2017-12-08T01:56:00.543Z,62.36
2017-12-08T01:58:28.050Z,63.35
2017-12-08T02:00:55.555Z,63.61
2017-12-08T02:03:23.278Z,63.13
2017-12-08T02:05:50.843Z,63.76
2017-12-08T02:08:18.352Z,64.30
2017-12-08T02:10:46.133Z,65.39
2017-12-08T02:13:13.650Z,65.15
2017-12-08T02:15:41.175Z,65.70
2017-12-08T02:18:09.020Z,66.08
2017-12-08T02:20:36.601Z,67.99
2017-12-08T02:23:04.109Z,67.77
2017-12-08T02:25:31.653Z,67.84
2017-12-08T02:27:59.193Z,68.19
2017-12-08T02:30:26.748Z,68.30
2017-12-08T02:32:54.309Z,68.21
2017-12-08T02:35:21.853Z,68.16
2017-12-08T02:37:49.356Z,68.53
2017-12-08T02:40:17.310Z,68.55
2017-12-08T02:42:44.837Z,68.73
2017-12-08T02:45:13.012Z,68.45
2017-12-08T02:47:40.673Z,69.12
2017-12-08T02:50:08.232Z,69.24
2017-12-08T02:52:35.738Z,69.68
2017-12-08T02:55:03.426Z,70.59
2017-12-08T02:57:30.933Z,70.79
2017-12-08T02:59:58.698Z,70.74
2017-12-08T03:02:26.437Z,70.91
2017-12-08T03:04:54.011Z,70.75
2017-12-08T03:07:21.556Z,71.33
2017-12-08T03:09:49.395Z,71.00
2017-12-08T03:12:16.903Z,71.27
2017-12-08T03:14:44.414Z,71.29
2017-12-08T03:17:12.201Z,70.89
2017-12-08T03:19:39.759Z,70.65
2017-12-08T03:22:07.266Z,69.82
2017-12-08T03:24:34.958Z,69.75
2017-12-08T03:27:02.466Z,70.13
2017-12-08T03:29:29.996Z,70.03
2017-12-08T03:31:57.571Z,69.81
2017-12-08T03:34:25.114Z,70.01
2017-12-08T03:36:52.618Z,70.69
2017-12-08T03:39:21.520Z,70.59
2017-12-08T03:41:50.574Z,70.16
2017-12-08T03:44:18.117Z,70.02
2017-12-08T03:46:45.879Z,69.14
2017-12-08T03:49:13.382Z,69.14
2017-12-08T03:51:40.891Z,70.81
2017-12-08T03:54:08.839Z,70.53
2017-12-08T03:56:36.350Z,69.76
2017-12-08T03:59:03.879Z,68.62
2017-12-08T04:01:31.425Z,68.81
2017-12-08T04:03:58.926Z,69.25
2017-12-08T04:06:26.436Z,68.89
2017-12-08T04:08:53.995Z,68.49
2017-12-08T04:11:21.505Z,69.03
2017-12-08T04:13:49.022Z,68.60
2017-12-08T04:16:16.897Z,68.11
2017-12-08T04:18:44.398Z,68.06
2017-12-08T04:21:11.898Z,68.01
2017-12-08T04:23:39.646Z,68.26
2017-12-08T04:26:07.162Z,69.52
2017-12-08T04:28:34.674Z,67.91
2017-12-08T04:31:02.471Z,67.34
2017-12-08T04:33:30.015Z,66.49
2017-12-08T04:35:57.528Z,66.89
2017-12-08T04:40:51.872Z,66.60
2017-12-08T04:43:19.377Z,65.99
2017-12-08T04:45:47.194Z,66.86
2017-12-08T04:48:14.706Z,67.48
2017-12-08T04:50:42.224Z,67.04
2017-12-08T04:53:09.762Z,66.97
2017-12-08T04:55:37.331Z,66.95
2017-12-08T04:58:04.889Z,66.31
2017-12-08T05:00:32.444Z,66.79
2017-12-08T05:02:59.954Z,66.03
2017-12-08T05:05:27.463Z,65.68
2017-12-08T05:07:55.018Z,66.20
2017-12-08T05:10:22.542Z,66.08
2017-12-08T05:12:50.058Z,65.91
2017-12-08T05:15:17.802Z,66.30
2017-12-08T05:17:45.378Z,66.26
2017-12-08T05:20:12.941Z,65.57
2017-12-08T05:22:40.658Z,65.39
2017-12-08T05:25:08.169Z,65.85
2017-12-08T05:27:35.683Z,65.84
2017-12-08T05:30:03.642Z,65.18
2017-12-08T05:32:31.158Z,66.21
2017-12-08T05:34:58.658Z,64.78
2017-12-08T05:37:26.530Z,67.44
2017-12-08T05:39:54.034Z,67.01
2017-12-08T05:42:21.542Z,65.94
2017-12-08T05:44:49.435Z,65.67
2017-12-08T05:47:16.992Z,65.72
2017-12-08T05:49:44.502Z,64.93
2017-12-08T05:52:12.519Z,65.62
2017-12-08T05:54:40.030Z,65.57
2017-12-08T05:57:07.562Z,65.41
2017-12-08T05:59:35.299Z,65.68
2017-12-08T06:02:02.802Z,66.00
2017-12-08T06:04:30.318Z,66.11
2017-12-08T06:06:57.875Z,67.07
2017-12-08T06:09:25.434Z,65.95
2017-12-08T06:11:52.938Z,65.58
2017-12-08T06:14:20.858Z,65.14
2017-12-08T06:16:48.419Z,65.08
2017-12-08T06:19:15.974Z,65.16
2017-12-08T06:21:43.734Z,65.44
2017-12-08T06:24:11.235Z,65.42
2017-12-08T06:26:38.750Z,65.30
2017-12-08T06:29:06.502Z,64.68
2017-12-08T06:31:34.010Z,64.39
2017-12-08T06:34:01.536Z,64.10
2017-12-08T06:36:29.066Z,63.59
2017-12-08T06:38:56.574Z,62.85
2017-12-08T06:41:24.091Z,62.14
2017-12-08T06:43:51.670Z,62.23
2017-12-08T06:46:19.182Z,61.93
2017-12-08T06:48:46.689Z,61.58
2017-12-08T06:51:14.351Z,61.77
2017-12-08T06:53:41.909Z,61.71
2017-12-08T06:56:09.420Z,62.89
2017-12-08T06:58:37.130Z,62.51
2017-12-08T07:01:04.638Z,62.08
2017-12-08T07:03:32.155Z,62.32
2017-12-08T07:05:59.906Z,62.52
2017-12-08T07:08:27.410Z,63.44
2017-12-08T07:10:54.923Z,62.90
2017-12-08T07:13:22.666Z,62.36
2017-12-08T07:15:50.175Z,62.01
2017-12-08T07:18:17.691Z,62.05
2017-12-08T07:20:45.472Z,61.43
2017-12-08T07:23:13.026Z,61.71
2017-12-08T07:25:40.586Z,61.98
2017-12-08T07:28:08.218Z,61.04
2017-12-08T07:30:35.736Z,61.54
2017-12-08T07:33:03.268Z,61.30
2017-12-08T07:35:30.854Z,61.10
2017-12-08T07:37:58.380Z,60.67
2017-12-08T07:40:25.895Z,60.53
2017-12-08T07:42:53.550Z,60.57
2017-12-08T07:45:21.572Z,59.97
2017-12-08T07:47:49.074Z,59.80
2017-12-08T07:50:16.770Z,59.53
2017-12-08T07:52:44.290Z,59.68
2017-12-08T07:55:11.798Z,58.82
2017-12-08T07:57:39.646Z,59.87
2017-12-08T08:00:07.158Z,59.87
2017-12-08T08:02:34.663Z,59.75
2017-12-08T08:05:02.327Z,59.56
2017-12-08T08:07:29.848Z,59.29
2017-12-08T08:09:57.364Z,58.93
2017-12-08T08:12:25.070Z,58.60
2017-12-08T08:14:52.577Z,58.29
2017-12-08T08:17:20.086Z,58.22
2017-12-08T08:19:49.913Z,57.93
2017-12-08T08:22:18.130Z,57.76
2017-12-08T08:24:46.099Z,57.52
2017-12-08T08:27:13.996Z,57.56
2017-12-08T08:29:41.556Z,58.47
2017-12-08T08:32:09.698Z,57.70
2017-12-08T08:34:38.076Z,57.08
2017-12-08T08:37:05.599Z,57.15
2017-12-08T08:39:33.549Z,57.22
2017-12-08T08:42:01.485Z,57.51
2017-12-08T08:44:30.275Z,57.78
2017-12-08T08:46:57.868Z,56.74
2017-12-08T08:49:26.402Z,57.34
2017-12-08T08:51:54.286Z,56.67
2017-12-08T08:54:22.133Z,57.32
2017-12-08T08:56:49.837Z,57.70
2017-12-08T08:59:17.348Z,56.30
2017-12-08T09:01:44.864Z,56.25
2017-12-08T09:04:12.551Z,55.83
2017-12-08T09:06:40.144Z,55.65
2017-12-08T09:09:08.805Z,55.32
2017-12-08T09:11:36.685Z,54.16
2017-12-08T09:14:04.348Z,53.52
2017-12-08T09:16:31.996Z,52.80
2017-12-08T09:18:59.783Z,47.65
2017-12-08T09:21:27.338Z,37.62
2017-12-08T09:23:54.883Z,34.07
2017-12-08T09:26:22.579Z,33.18
2017-12-08T09:28:50.208Z,33.73
2017-12-08T09:31:19.738Z,37.18
2017-12-08T09:33:47.570Z,40.75
2017-12-08T09:36:16.086Z,43.28
2017-12-08T09:38:43.830Z,44.92
2017-12-08T09:41:12.291Z,45.53
2017-12-08T09:43:39.807Z,46.37
2017-12-08T09:46:07.319Z,47.08
2017-12-08T09:48:34.884Z,48.71
2017-12-08T09:51:02.394Z,49.21
2017-12-08T09:53:29.953Z,49.09
2017-12-08T09:55:57.665Z,50.13
2017-12-08T09:58:25.227Z,49.25
2017-12-08T10:00:53.700Z,49.35
2017-12-08T10:03:21.342Z,49.35
2017-12-08T10:05:48.851Z,49.32
2017-12-08T10:08:16.357Z,49.65
2017-12-08T10:10:43.915Z,50.05
2017-12-08T10:13:11.422Z,50.49
2017-12-08T10:15:38.935Z,50.09
2017-12-08T10:18:06.503Z,50.18
2017-12-08T10:20:34.011Z,50.46
2017-12-08T10:23:01.531Z,51.04
2017-12-08T10:25:29.092Z,51.68
2017-12-08T10:27:56.598Z,50.08
2017-12-08T10:30:24.107Z,49.92
2017-12-08T10:32:51.666Z,51.06
2017-12-08T10:35:19.170Z,49.80
2017-12-08T10:37:46.707Z,41.96
2017-12-08T10:40:14.422Z,41.13
2017-12-08T10:42:41.942Z,41.70
2017-12-08T10:45:09.461Z,43.10
2017-12-08T10:47:37.225Z,44.49
2017-12-08T10:50:04.733Z,45.15
2017-12-08T10:52:32.259Z,47.42
2017-12-08T10:54:59.950Z,46.71
2017-12-08T10:57:27.466Z,46.96
2017-12-08T10:59:55.020Z,47.52
2017-12-08T11:02:22.729Z,47.76
2017-12-08T11:04:50.252Z,47.05
2017-12-08T11:07:17.802Z,47.69
2017-12-08T11:09:45.546Z,47.29
2017-12-08T11:12:13.060Z,47.59
2017-12-08T11:14:40.570Z,47.58
2017-12-08T11:17:08.140Z,44.62
2017-12-08T11:19:35.651Z,45.53
2017-12-08T11:22:03.162Z,45.11
2017-12-08T11:24:30.713Z,44.62
2017-12-08T11:26:58.218Z,45.25
2017-12-08T11:29:25.728Z,45.89
2017-12-08T11:31:53.271Z,46.52
2017-12-08T11:34:20.791Z,45.64
2017-12-08T11:36:48.321Z,45.99
2017-12-08T11:39:16.046Z,46.34
2017-12-08T11:41:43.567Z,45.62
2017-12-08T11:44:11.079Z,42.94
2017-12-08T11:46:39.052Z,41.75
2017-12-08T11:49:06.856Z,43.01
2017-12-08T11:51:34.374Z,43.42
2017-12-08T11:54:02.343Z,44.39
2017-12-08T11:56:29.977Z,45.67
2017-12-08T11:58:57.484Z,46.36
2017-12-08T12:01:25.225Z,46.44
2017-12-08T12:03:52.730Z,47.63
2017-12-08T12:06:20.247Z,47.84
2017-12-08T12:08:47.982Z,48.46
2017-12-08T12:11:15.502Z,50.62
2017-12-08T12:13:43.014Z,53.43
2017-12-08T12:16:10.785Z,57.73
2017-12-08T12:18:38.348Z,60.53
2017-12-08T12:21:05.850Z,63.45
2017-12-08T12:23:33.564Z,65.67
2017-12-08T12:26:01.076Z,66.75
2017-12-08T12:28:28.582Z,68.15
2017-12-08T12:30:56.447Z,68.31
2017-12-08T12:33:23.950Z,68.02
2017-12-08T12:35:51.459Z,70.04
2017-12-08T12:38:19.002Z,71.58
2017-12-08T12:40:46.516Z,72.14
2017-12-08T12:43:14.051Z,73.46
2017-12-08T12:45:41.986Z,73.65
2017-12-08T12:48:09.494Z,72.43
2017-12-08T12:50:37.014Z,72.50
2017-12-08T12:53:04.992Z,72.73
2017-12-08T12:55:32.572Z,72.15
2017-12-08T12:58:00.290Z,71.01
2017-12-08T13:00:28.104Z,68.59
2017-12-08T13:02:55.713Z,66.97
2017-12-08T13:05:23.234Z,66.69
2017-12-08T13:07:50.779Z,65.51
2017-12-08T13:10:18.481Z,64.53
2017-12-08T13:12:46.000Z,63.83
2017-12-08T13:15:14.145Z,62.78
2017-12-08T13:17:42.425Z,63.12
2017-12-08T13:20:10.174Z,61.20
2017-12-08T13:22:38.158Z,61.92
2017-12-08T13:25:05.718Z,61.41
2017-12-08T13:27:33.276Z,61.66
2017-12-08T13:30:00.862Z,61.97
2017-12-08T13:32:28.411Z,61.99
2017-12-08T13:34:55.983Z,62.46
2017-12-08T13:37:23.717Z,62.76
2017-12-08T13:39:51.286Z,62.41
2017-12-08T13:42:18.836Z,63.78
2017-12-08T13:44:46.599Z,63.02
2017-12-08T13:47:14.366Z,62.67
2017-12-08T13:49:42.230Z,61.91
2017-12-08T13:52:09.994Z,61.91
2017-12-08T13:54:49.746Z,62.41
2017-12-08T13:57:17.605Z,63.01
2017-12-08T13:59:45.127Z,62.68
2017-12-08T14:02:12.722Z,62.41
2017-12-08T14:04:40.436Z,62.70
2017-12-08T14:07:08.010Z,63.92
2017-12-08T14:09:35.810Z,63.30
2017-12-08T14:12:03.685Z,63.90
2017-12-08T14:14:31.236Z,63.64
2017-12-08T14:16:58.906Z,63.12
2017-12-08T14:19:26.873Z,63.25
2017-12-08T14:21:54.483Z,61.46
2017-12-08T14:24:22.141Z,61.82
2017-12-08T14:26:50.054Z,62.56
2017-12-08T14:29:17.612Z,61.79
2017-12-08T14:31:45.175Z,61.72
2017-12-08T14:34:12.836Z,62.68
2017-12-08T14:36:40.606Z,62.39
2017-12-08T14:39:08.188Z,62.34
2017-12-08T14:41:36.025Z,61.23
2017-12-08T14:44:03.755Z,61.88
2017-12-08T14:46:31.494Z,61.26
2017-12-08T14:48:59.725Z,61.72
2017-12-08T14:51:27.282Z,61.33
2017-12-08T14:53:54.945Z,61.10
2017-12-08T14:56:23.018Z,61.00
2017-12-08T14:58:50.591Z,61.15
2017-12-08T15:01:18.231Z,60.29
2017-12-08T15:03:46.291Z,60.79
2017-12-08T15:06:13.974Z,60.20
2017-12-08T15:08:41.528Z,60.18
2017-12-08T15:11:09.094Z,60.44
2017-12-08T15:13:36.646Z,60.07
2017-12-08T15:16:04.256Z,60.32
2017-12-08T15:18:32.049Z,60.68
2017-12-08T15:20:59.733Z,61.56
2017-12-08T15:23:27.251Z,61.55
2017-12-08T15:25:54.855Z,62.55
2017-12-08T15:28:22.410Z,62.11
2017-12-08T15:30:50.072Z,62.86
2017-12-08T15:33:17.951Z,62.44
2017-12-08T15:35:46.427Z,62.00
2017-12-08T15:38:13.979Z,62.70
2017-12-08T15:40:41.749Z,62.38
2017-12-08T15:43:10.222Z,62.87
2017-12-08T15:45:37.993Z,63.00
2017-12-08T15:48:05.677Z,63.42
2017-12-08T15:50:33.226Z,63.01
2017-12-08T15:53:01.073Z,63.36
2017-12-08T15:55:28.756Z,63.38
2017-12-08T15:57:56.516Z,62.82
2017-12-08T16:00:24.364Z,63.53
2017-12-08T16:02:52.239Z,63.16
2017-12-08T16:05:19.995Z,62.63
2017-12-08T16:07:47.646Z,62.65
2017-12-08T16:10:15.218Z,62.55
2017-12-08T16:12:42.877Z,62.75
2017-12-08T16:15:10.437Z,62.72
2017-12-08T16:17:38.302Z,62.51
2017-12-08T16:20:05.965Z,62.51
2017-12-08T16:22:33.475Z,62.88
2017-12-08T16:25:01.478Z,62.52
2017-12-08T16:27:29.018Z,62.87
2017-12-08T16:29:56.713Z,63.08
2017-12-08T16:32:24.374Z,63.46
2017-12-08T16:34:51.932Z,63.47
2017-12-08T16:37:19.493Z,62.70
2017-12-08T16:39:47.266Z,62.60
2017-12-08T16:42:14.814Z,62.44
2017-12-08T16:44:42.374Z,62.29
2017-12-08T16:47:10.030Z,62.36
2017-12-08T16:49:37.548Z,62.49
2017-12-08T16:52:05.154Z,62.53
2017-12-08T16:54:32.917Z,61.91
2017-12-08T16:57:00.506Z,61.74
2017-12-08T16:59:28.034Z,61.35
2017-12-08T17:01:55.618Z,61.03
2017-12-08T17:04:23.138Z,61.52
2017-12-08T17:06:50.654Z,61.49
2017-12-08T17:09:18.230Z,61.30
2017-12-08T17:11:46.007Z,61.28
2017-12-08T17:14:13.524Z,61.00
2017-12-08T17:16:41.145Z,63.18
2017-12-08T17:19:08.717Z,63.74
2017-12-08T17:21:36.262Z,64.54
2017-12-08T17:24:04.130Z,64.58
2017-12-08T17:26:31.703Z,63.98
2017-12-08T17:28:59.255Z,64.37
2017-12-08T17:31:27.431Z,64.34
2017-12-08T17:33:55.193Z,63.88
2017-12-08T17:36:23.015Z,63.87
2017-12-08T17:38:50.721Z,64.43
2017-12-08T17:41:18.283Z,65.37
2017-12-08T17:43:45.791Z,66.58
2017-12-08T17:46:13.713Z,66.35
2017-12-08T17:48:41.273Z,67.14
2017-12-08T17:51:09.029Z,66.96
2017-12-08T17:53:36.587Z,68.51
2017-12-08T17:56:04.242Z,68.51
2017-12-08T17:58:31.767Z,68.45
2017-12-08T18:00:59.756Z,68.74
2017-12-08T18:03:27.261Z,68.81
2017-12-08T18:05:54.894Z,68.16
2017-12-08T18:08:22.731Z,67.88
2017-12-08T18:10:50.264Z,68.36
2017-12-08T18:13:17.800Z,67.70
2017-12-08T18:15:45.700Z,67.79
2017-12-08T18:18:13.286Z,67.44
2017-12-08T18:20:40.803Z,67.25
2017-12-08T18:23:08.576Z,67.64
2017-12-08T18:25:36.094Z,66.96
2017-12-08T18:28:03.602Z,67.33
2017-12-08T18:30:31.406Z,67.73
2017-12-08T18:32:58.966Z,67.25
2017-12-08T18:35:26.525Z,67.35
2017-12-08T18:37:54.084Z,66.77
2017-12-08T18:40:21.586Z,66.25
2017-12-08T18:42:49.100Z,65.45
2017-12-08T18:45:17.172Z,65.53
2017-12-08T18:47:44.739Z,65.89
2017-12-08T18:50:12.392Z,64.95
2017-12-08T18:52:40.361Z,64.78
2017-12-08T18:55:07.914Z,65.23
2017-12-08T18:57:35.480Z,64.58
2017-12-08T19:00:03.186Z,64.37
2017-12-08T19:02:30.702Z,64.09
2017-12-08T19:04:58.205Z,64.26
2017-12-08T19:07:25.758Z,64.77
2017-12-08T19:09:53.293Z,64.41
2017-12-08T19:12:20.850Z,64.71
2017-12-08T19:14:48.495Z,65.15
2017-12-08T19:17:16.002Z,65.46
2017-12-08T19:19:43.522Z,65.36
2017-12-08T19:22:11.947Z,65.69
2017-12-08T19:24:39.474Z,65.09
2017-12-08T19:27:07.122Z,65.28
2017-12-08T19:29:34.873Z,65.09
2017-12-08T19:32:02.431Z,65.63
2017-12-08T19:34:29.992Z,65.20
2017-12-08T19:36:57.742Z,64.83
2017-12-08T19:39:25.519Z,64.76
2017-12-08T19:41:53.119Z,64.93
2017-12-08T19:44:20.668Z,65.43
2017-12-08T19:46:48.194Z,64.59
2017-12-08T19:49:15.928Z,64.42
2017-12-08T19:51:43.897Z,63.78
2017-12-08T19:54:11.760Z,63.86
2017-12-08T19:56:39.354Z,63.64
2017-12-08T19:59:07.118Z,64.28
2017-12-08T20:01:34.779Z,64.27
2017-12-08T20:04:02.338Z,63.80
2017-12-08T20:06:30.410Z,63.47
2017-12-08T20:08:58.071Z,63.08
2017-12-08T20:11:25.938Z,63.70
2017-12-08T20:13:53.723Z,63.04
2017-12-08T20:16:21.479Z,63.85
2017-12-08T20:18:49.298Z,63.80
2017-12-08T20:21:17.506Z,63.90
2017-12-08T20:23:45.964Z,63.51
2017-12-08T20:26:13.546Z,64.17
2017-12-08T20:28:41.525Z,63.83
2017-12-08T20:31:09.379Z,63.90
2017-12-08T20:33:37.143Z,63.94
2017-12-08T20:36:05.009Z,63.13
2017-12-08T20:38:32.671Z,63.28
2017-12-08T20:41:00.230Z,62.89
2017-12-08T20:43:27.945Z,61.74
2017-12-08T20:45:55.655Z,62.21
2017-12-08T20:48:23.215Z,62.13
2017-12-08T20:50:51.592Z,62.30
2017-12-08T20:53:19.459Z,62.53
2017-12-08T20:55:47.325Z,61.94
2017-12-08T20:58:15.089Z,62.10
2017-12-08T21:00:42.931Z,62.49
2017-12-08T21:03:10.617Z,62.24
2017-12-08T21:05:39.102Z,62.71
2017-12-08T21:08:06.880Z,62.70
2017-12-08T21:10:34.634Z,63.22
2017-12-08T21:13:03.005Z,63.21
2017-12-08T21:15:32.612Z,63.35
2017-12-08T21:18:00.376Z,63.85
2017-12-08T21:20:28.240Z,63.95
2017-12-08T21:22:56.020Z,65.07
2017-12-08T21:25:23.666Z,64.87
2017-12-08T21:27:51.432Z,64.91
2017-12-08T21:30:20.386Z,64.91
2017-12-08T21:32:47.976Z,64.40
2017-12-08T21:35:15.650Z,64.02
2017-12-08T21:37:43.206Z,64.68
2017-12-08T21:40:10.905Z,65.60
2017-12-08T21:42:38.950Z,65.28
2017-12-08T21:45:06.802Z,65.50
2017-12-08T21:47:34.472Z,65.17
2017-12-08T21:50:02.231Z,65.16
2017-12-08T21:52:29.842Z,65.42
2017-12-08T21:54:57.652Z,65.78
2017-12-08T21:57:25.237Z,65.02
2017-12-08T21:59:53.042Z,64.72
2017-12-08T22:02:20.796Z,65.15
2017-12-08T22:04:48.706Z,65.02
2017-12-08T22:07:16.368Z,64.92
2017-12-08T22:09:44.020Z,65.90
2017-12-08T22:12:11.602Z,65.10
2017-12-08T22:14:39.148Z,65.14
2017-12-08T22:17:06.800Z,64.44
2017-12-08T22:19:34.641Z,64.82
2017-12-08T22:22:02.345Z,64.04
2017-12-08T22:24:30.094Z,64.50
2017-12-08T22:26:57.865Z,67.13
2017-12-08T22:29:25.630Z,67.72
2017-12-08T22:31:53.142Z,67.82
2017-12-08T22:34:21.056Z,66.27
2017-12-08T22:36:48.614Z,66.16
2017-12-08T22:39:16.130Z,65.55
2017-12-08T22:41:44.125Z,65.53
2017-12-08T22:44:11.921Z,64.93
2017-12-08T22:46:39.671Z,65.33
2017-12-08T22:49:07.433Z,64.99
2017-12-08T22:51:35.089Z,65.19
2017-12-08T22:54:02.615Z,64.83
2017-12-08T22:56:30.497Z,64.68
2017-12-08T22:58:58.023Z,65.36
2017-12-08T23:01:25.525Z,64.64
2017-12-08T23:03:53.278Z,64.69
2017-12-08T23:06:20.786Z,64.10
2017-12-08T23:08:48.418Z,63.77
2017-12-08T23:11:15.954Z,63.47
2017-12-08T23:13:43.478Z,63.00
2017-12-08T23:16:10.991Z,62.69
2017-12-08T23:18:38.961Z,62.80
2017-12-08T23:21:06.476Z,63.36
2017-12-08T23:23:34.063Z,62.91
2017-12-08T23:26:01.947Z,63.19
2017-12-08T23:28:29.524Z,62.60
2017-12-08T23:30:57.039Z,62.33
2017-12-08T23:33:24.746Z,62.72
2017-12-08T23:35:52.276Z,62.32
2017-12-08T23:38:19.780Z,62.37
2017-12-08T23:40:47.339Z,62.10
2017-12-08T23:43:14.870Z,61.82
2017-12-08T23:45:42.417Z,61.86
2017-12-08T23:48:09.976Z,62.20
2017-12-08T23:50:37.477Z,61.94
2017-12-08T23:53:04.982Z,62.91
2017-12-08T23:55:32.550Z,62.74
2017-12-08T23:58:00.066Z,62.55
